sensor_id;sensor_type;location;lat;lon;timestamp;temperature;humidity
12688;DHT22;6408;59.388;17.798;2023-03-14T00:00:34;4.30;99.90
12688;DHT22;6408;59.388;17.798;2023-03-14T00:03:03;4.20;99.90
12688;DHT22;6408;59.388;17.798;2023-03-14T00:05:31;4.20;99.90
12688;DHT22;6408;59.388;17.798;2023-03-14T00:08:00;4.20;99.90
12688;DHT22;6408;59.388;17.798;2023-03-14T00:10:28;4.30;99.90
12688;DHT22;6408;59.388;17.798;2023-03-14T00:12:58;4.30;99.90
12688;DHT22;6408;59.388;17.798;2023-03-14T00:15:25;4.30;99.90
12688;DHT22;6408;59.388;17.798;2023-03-14T00:17:53;4.30;99.90
12688;DHT22;6408;59.388;17.798;2023-03-14T00:20:22;4.40;99.90
12688;DHT22;6408;59.388;17.798;2023-03-14T00:22:50;4.40;99.90
12688;DHT22;6408;59.388;17.798;2023-03-14T00:25:24;4.40;99.90
12688;DHT22;6408;59.388;17.798;2023-03-14T00:27:52;4.40;99.90
12688;DHT22;6408;59.388;17.798;2023-03-14T00:30:22;4.40;99.90
12688;DHT22;6408;59.388;17.798;2023-03-14T00:32:50;4.40;99.90
12688;DHT22;6408;59.388;17.798;2023-03-14T00:35:18;4.30;99.90
12688;DHT22;6408;59.388;17.798;2023-03-14T00:37:47;4.30;99.90
12688;DHT22;6408;59.388;17.798;2023-03-14T00:40:15;4.40;99.90
12688;DHT22;6408;59.388;17.798;2023-03-14T00:42:44;4.30;99.90
12688;DHT22;6408;59.388;17.798;2023-03-14T00:45:13;4.30;99.90
12688;DHT22;6408;59.388;17.798;2023-03-14T00:47:41;4.30;99.90
12688;DHT22;6408;59.388;17.798;2023-03-14T00:50:11;4.40;99.90
12688;DHT22;6408;59.388;17.798;2023-03-14T00:52:40;4.30;99.90
12688;DHT22;6408;59.388;17.798;2023-03-14T00:55:08;4.30;99.90
12688;DHT22;6408;59.388;17.798;2023-03-14T00:57:39;4.30;99.90
12688;DHT22;6408;59.388;17.798;2023-03-14T01:00:11;4.30;99.90
12688;DHT22;6408;59.388;17.798;2023-03-14T01:02:52;4.40;99.90
12688;DHT22;6408;59.388;17.798;2023-03-14T01:05:21;4.40;99.90
12688;DHT22;6408;59.388;17.798;2023-03-14T01:07:49;4.40;99.90
12688;DHT22;6408;59.388;17.798;2023-03-14T01:10:17;4.40;99.90
12688;DHT22;6408;59.388;17.798;2023-03-14T01:12:44;4.40;99.90
12688;DHT22;6408;59.388;17.798;2023-03-14T01:15:14;4.40;99.90
12688;DHT22;6408;59.388;17.798;2023-03-14T01:17:42;4.30;99.90
12688;DHT22;6408;59.388;17.798;2023-03-14T01:20:12;4.30;99.90
12688;DHT22;6408;59.388;17.798;2023-03-14T01:22:42;4.30;99.90
12688;DHT22;6408;59.388;17.798;2023-03-14T01:25:11;4.20;99.90
12688;DHT22;6408;59.388;17.798;2023-03-14T01:27:39;4.20;99.90
12688;DHT22;6408;59.388;17.798;2023-03-14T01:30:08;4.20;99.90
12688;DHT22;6408;59.388;17.798;2023-03-14T01:32:38;4.30;99.90
12688;DHT22;6408;59.388;17.798;2023-03-14T01:35:08;4.30;99.90
12688;DHT22;6408;59.388;17.798;2023-03-14T01:37:36;4.30;99.90
12688;DHT22;6408;59.388;17.798;2023-03-14T01:40:05;4.30;99.90
12688;DHT22;6408;59.388;17.798;2023-03-14T01:42:32;4.30;99.90
12688;DHT22;6408;59.388;17.798;2023-03-14T01:45:01;4.40;99.90
12688;DHT22;6408;59.388;17.798;2023-03-14T01:47:31;4.40;99.90
12688;DHT22;6408;59.388;17.798;2023-03-14T01:50:04;4.50;99.90
12688;DHT22;6408;59.388;17.798;2023-03-14T01:52:36;4.50;99.90
12688;DHT22;6408;59.388;17.798;2023-03-14T01:55:12;4.50;99.90
12688;DHT22;6408;59.388;17.798;2023-03-14T01:57:42;4.60;99.90
12688;DHT22;6408;59.388;17.798;2023-03-14T02:00:15;4.70;99.90
12688;DHT22;6408;59.388;17.798;2023-03-14T02:02:45;4.80;99.90
12688;DHT22;6408;59.388;17.798;2023-03-14T02:05:19;4.70;99.90
12688;DHT22;6408;59.388;17.798;2023-03-14T02:07:54;4.70;99.90
12688;DHT22;6408;59.388;17.798;2023-03-14T02:10:30;4.70;99.90
12688;DHT22;6408;59.388;17.798;2023-03-14T02:13:01;4.70;99.90
12688;DHT22;6408;59.388;17.798;2023-03-14T02:15:30;4.80;99.90
12688;DHT22;6408;59.388;17.798;2023-03-14T02:17:59;4.80;99.90
12688;DHT22;6408;59.388;17.798;2023-03-14T02:20:34;4.70;99.90
12688;DHT22;6408;59.388;17.798;2023-03-14T02:23:06;4.70;99.90
12688;DHT22;6408;59.388;17.798;2023-03-14T02:25:39;4.80;99.90
12688;DHT22;6408;59.388;17.798;2023-03-14T02:28:12;4.80;99.90
12688;DHT22;6408;59.388;17.798;2023-03-14T02:30:40;4.70;99.90
12688;DHT22;6408;59.388;17.798;2023-03-14T02:33:10;4.80;99.90
12688;DHT22;6408;59.388;17.798;2023-03-14T02:35:42;4.80;99.90
12688;DHT22;6408;59.388;17.798;2023-03-14T02:38:17;4.90;99.90
12688;DHT22;6408;59.388;17.798;2023-03-14T02:40:48;4.90;99.90
12688;DHT22;6408;59.388;17.798;2023-03-14T02:43:17;5.00;99.90
12688;DHT22;6408;59.388;17.798;2023-03-14T02:45:45;5.00;99.90
12688;DHT22;6408;59.388;17.798;2023-03-14T02:48:16;5.00;99.90
12688;DHT22;6408;59.388;17.798;2023-03-14T02:50:47;5.10;99.90
12688;DHT22;6408;59.388;17.798;2023-03-14T02:53:18;5.20;99.90
12688;DHT22;6408;59.388;17.798;2023-03-14T02:55:47;5.20;99.90
12688;DHT22;6408;59.388;17.798;2023-03-14T02:58:17;5.20;99.90
12688;DHT22;6408;59.388;17.798;2023-03-14T03:00:45;5.20;99.90
12688;DHT22;6408;59.388;17.798;2023-03-14T03:03:13;5.30;99.90
12688;DHT22;6408;59.388;17.798;2023-03-14T03:05:48;5.30;99.90
12688;DHT22;6408;59.388;17.798;2023-03-14T03:08:17;5.30;99.90
12688;DHT22;6408;59.388;17.798;2023-03-14T03:10:45;5.30;99.90
12688;DHT22;6408;59.388;17.798;2023-03-14T03:13:13;5.40;99.90
12688;DHT22;6408;59.388;17.798;2023-03-14T03:15:44;5.40;99.90
12688;DHT22;6408;59.388;17.798;2023-03-14T03:18:12;5.40;99.90
12688;DHT22;6408;59.388;17.798;2023-03-14T03:20:41;5.40;99.90
12688;DHT22;6408;59.388;17.798;2023-03-14T03:23:10;5.40;99.90
12688;DHT22;6408;59.388;17.798;2023-03-14T03:25:37;5.40;99.90
12688;DHT22;6408;59.388;17.798;2023-03-14T03:28:05;5.50;99.90
12688;DHT22;6408;59.388;17.798;2023-03-14T03:30:36;5.50;99.90
12688;DHT22;6408;59.388;17.798;2023-03-14T03:33:06;5.40;99.90
12688;DHT22;6408;59.388;17.798;2023-03-14T03:35:33;5.50;99.90
12688;DHT22;6408;59.388;17.798;2023-03-14T03:38:03;5.40;99.90
12688;DHT22;6408;59.388;17.798;2023-03-14T03:40:32;5.50;99.90
12688;DHT22;6408;59.388;17.798;2023-03-14T03:42:59;5.40;99.90
12688;DHT22;6408;59.388;17.798;2023-03-14T03:45:28;5.40;99.90
12688;DHT22;6408;59.388;17.798;2023-03-14T03:47:56;5.40;99.90
12688;DHT22;6408;59.388;17.798;2023-03-14T03:50:26;5.40;99.90
12688;DHT22;6408;59.388;17.798;2023-03-14T03:52:54;5.40;99.90
12688;DHT22;6408;59.388;17.798;2023-03-14T03:55:22;5.40;99.90
12688;DHT22;6408;59.388;17.798;2023-03-14T03:57:52;5.30;99.90
12688;DHT22;6408;59.388;17.798;2023-03-14T04:00:33;5.40;99.90
12688;DHT22;6408;59.388;17.798;2023-03-14T04:03:01;5.40;99.90
12688;DHT22;6408;59.388;17.798;2023-03-14T04:05:31;5.50;99.90
12688;DHT22;6408;59.388;17.798;2023-03-14T04:07:59;5.50;99.90
12688;DHT22;6408;59.388;17.798;2023-03-14T04:10:27;5.50;99.90
12688;DHT22;6408;59.388;17.798;2023-03-14T04:12:55;5.50;99.90
12688;DHT22;6408;59.388;17.798;2023-03-14T04:15:24;5.40;99.90
12688;DHT22;6408;59.388;17.798;2023-03-14T04:17:57;5.40;99.90
12688;DHT22;6408;59.388;17.798;2023-03-14T04:20:25;5.40;99.90
12688;DHT22;6408;59.388;17.798;2023-03-14T04:22:55;5.40;99.90
12688;DHT22;6408;59.388;17.798;2023-03-14T04:25:23;5.50;99.90
12688;DHT22;6408;59.388;17.798;2023-03-14T04:27:50;5.40;99.90
12688;DHT22;6408;59.388;17.798;2023-03-14T04:30:18;5.50;99.90
12688;DHT22;6408;59.388;17.798;2023-03-14T04:32:47;5.50;99.90
12688;DHT22;6408;59.388;17.798;2023-03-14T04:35:15;5.50;99.90
12688;DHT22;6408;59.388;17.798;2023-03-14T04:37:42;5.50;99.90
12688;DHT22;6408;59.388;17.798;2023-03-14T04:40:13;5.50;99.90
12688;DHT22;6408;59.388;17.798;2023-03-14T04:42:40;5.50;99.90
12688;DHT22;6408;59.388;17.798;2023-03-14T04:45:26;5.50;99.90
12688;DHT22;6408;59.388;17.798;2023-03-14T04:48:02;5.50;99.90
12688;DHT22;6408;59.388;17.798;2023-03-14T04:50:30;5.50;99.90
12688;DHT22;6408;59.388;17.798;2023-03-14T04:52:58;5.50;99.90
12688;DHT22;6408;59.388;17.798;2023-03-14T04:55:28;5.40;99.90
12688;DHT22;6408;59.388;17.798;2023-03-14T04:57:56;5.50;99.90
12688;DHT22;6408;59.388;17.798;2023-03-14T05:00:26;5.50;99.90
12688;DHT22;6408;59.388;17.798;2023-03-14T05:02:57;5.50;99.90
12688;DHT22;6408;59.388;17.798;2023-03-14T05:05:28;5.40;99.90
12688;DHT22;6408;59.388;17.798;2023-03-14T05:07:59;5.40;99.90
12688;DHT22;6408;59.388;17.798;2023-03-14T05:10:29;5.50;99.90
12688;DHT22;6408;59.388;17.798;2023-03-14T05:12:56;5.40;99.90
12688;DHT22;6408;59.388;17.798;2023-03-14T05:15:24;5.40;99.90
12688;DHT22;6408;59.388;17.798;2023-03-14T05:17:54;5.40;99.90
12688;DHT22;6408;59.388;17.798;2023-03-14T05:20:22;5.40;99.90
12688;DHT22;6408;59.388;17.798;2023-03-14T05:22:50;5.30;99.90
12688;DHT22;6408;59.388;17.798;2023-03-14T05:25:18;5.30;99.90
12688;DHT22;6408;59.388;17.798;2023-03-14T05:27:48;5.30;99.90
12688;DHT22;6408;59.388;17.798;2023-03-14T05:30:16;5.30;99.90
12688;DHT22;6408;59.388;17.798;2023-03-14T05:32:45;5.30;99.90
12688;DHT22;6408;59.388;17.798;2023-03-14T05:35:13;5.30;99.90
12688;DHT22;6408;59.388;17.798;2023-03-14T05:37:42;5.30;99.90
12688;DHT22;6408;59.388;17.798;2023-03-14T05:40:13;5.30;99.90
12688;DHT22;6408;59.388;17.798;2023-03-14T05:42:40;5.30;99.90
12688;DHT22;6408;59.388;17.798;2023-03-14T05:45:10;5.20;99.90
12688;DHT22;6408;59.388;17.798;2023-03-14T05:47:39;5.20;99.90
12688;DHT22;6408;59.388;17.798;2023-03-14T05:50:08;5.20;99.90
12688;DHT22;6408;59.388;17.798;2023-03-14T05:52:36;5.20;99.90
12688;DHT22;6408;59.388;17.798;2023-03-14T05:55:06;5.20;99.90
12688;DHT22;6408;59.388;17.798;2023-03-14T05:57:36;5.20;99.90
12688;DHT22;6408;59.388;17.798;2023-03-14T06:00:04;5.20;99.90
12688;DHT22;6408;59.388;17.798;2023-03-14T06:02:36;5.20;99.90
12688;DHT22;6408;59.388;17.798;2023-03-14T06:05:07;5.10;99.90
12688;DHT22;6408;59.388;17.798;2023-03-14T06:07:34;5.10;99.90
12688;DHT22;6408;59.388;17.798;2023-03-14T06:10:02;5.10;99.90
12688;DHT22;6408;59.388;17.798;2023-03-14T06:12:35;5.10;99.90
12688;DHT22;6408;59.388;17.798;2023-03-14T06:15:07;5.20;99.90
12688;DHT22;6408;59.388;17.798;2023-03-14T06:17:48;5.20;99.90
12688;DHT22;6408;59.388;17.798;2023-03-14T06:20:24;5.20;99.90
12688;DHT22;6408;59.388;17.798;2023-03-14T06:23:06;5.20;99.90
12688;DHT22;6408;59.388;17.798;2023-03-14T06:25:37;5.20;99.90
12688;DHT22;6408;59.388;17.798;2023-03-14T06:28:05;5.20;99.90
12688;DHT22;6408;59.388;17.798;2023-03-14T06:30:32;5.20;99.90
12688;DHT22;6408;59.388;17.798;2023-03-14T06:33:01;5.20;99.90
12688;DHT22;6408;59.388;17.798;2023-03-14T06:35:29;5.20;99.90
12688;DHT22;6408;59.388;17.798;2023-03-14T06:37:57;5.10;99.90
12688;DHT22;6408;59.388;17.798;2023-03-14T06:40:33;5.10;99.90
12688;DHT22;6408;59.388;17.798;2023-03-14T06:43:01;5.00;99.90
12688;DHT22;6408;59.388;17.798;2023-03-14T06:45:28;5.00;99.90
12688;DHT22;6408;59.388;17.798;2023-03-14T06:48:03;5.00;99.90
12688;DHT22;6408;59.388;17.798;2023-03-14T06:50:31;5.00;99.90
12688;DHT22;6408;59.388;17.798;2023-03-14T06:52:59;5.00;99.90
12688;DHT22;6408;59.388;17.798;2023-03-14T06:55:26;5.00;99.90
12688;DHT22;6408;59.388;17.798;2023-03-14T06:57:54;5.10;99.90
12688;DHT22;6408;59.388;17.798;2023-03-14T07:00:22;5.10;99.90
12688;DHT22;6408;59.388;17.798;2023-03-14T07:02:51;5.10;99.90
12688;DHT22;6408;59.388;17.798;2023-03-14T07:05:20;5.20;99.90
12688;DHT22;6408;59.388;17.798;2023-03-14T07:07:49;5.30;99.90
12688;DHT22;6408;59.388;17.798;2023-03-14T07:10:17;5.50;99.90
12688;DHT22;6408;59.388;17.798;2023-03-14T07:12:45;6.30;99.90
12688;DHT22;6408;59.388;17.798;2023-03-14T07:15:14;9.10;99.90
12688;DHT22;6408;59.388;17.798;2023-03-14T07:17:49;9.70;99.90
12688;DHT22;6408;59.388;17.798;2023-03-14T07:20:36;10.10;99.90
12688;DHT22;6408;59.388;17.798;2023-03-14T07:23:20;9.30;99.90
12688;DHT22;6408;59.388;17.798;2023-03-14T07:25:57;9.40;99.90
12688;DHT22;6408;59.388;17.798;2023-03-14T07:28:31;8.80;99.90
12688;DHT22;6408;59.388;17.798;2023-03-14T07:31:02;8.10;99.90
12688;DHT22;6408;59.388;17.798;2023-03-14T07:33:39;7.60;99.90
12688;DHT22;6408;59.388;17.798;2023-03-14T07:36:21;7.20;99.90
12688;DHT22;6408;59.388;17.798;2023-03-14T07:38:58;6.60;99.90
12688;DHT22;6408;59.388;17.798;2023-03-14T07:41:29;6.20;99.90
12688;DHT22;6408;59.388;17.798;2023-03-14T07:44:13;6.00;99.90
12688;DHT22;6408;59.388;17.798;2023-03-14T07:46:43;5.70;99.90
12688;DHT22;6408;59.388;17.798;2023-03-14T07:49:12;5.50;99.90
12688;DHT22;6408;59.388;17.798;2023-03-14T07:51:43;5.40;99.90
12688;DHT22;6408;59.388;17.798;2023-03-14T07:54:16;5.20;99.90
12688;DHT22;6408;59.388;17.798;2023-03-14T07:56:44;5.20;99.90
12688;DHT22;6408;59.388;17.798;2023-03-14T07:59:14;5.10;99.90
12688;DHT22;6408;59.388;17.798;2023-03-14T08:01:42;5.10;99.90
12688;DHT22;6408;59.388;17.798;2023-03-14T08:04:10;5.00;99.90
12688;DHT22;6408;59.388;17.798;2023-03-14T08:06:38;4.90;99.90
12688;DHT22;6408;59.388;17.798;2023-03-14T08:09:07;4.90;99.90
12688;DHT22;6408;59.388;17.798;2023-03-14T08:11:34;4.80;99.90
12688;DHT22;6408;59.388;17.798;2023-03-14T08:14:02;4.80;99.90
12688;DHT22;6408;59.388;17.798;2023-03-14T08:16:31;4.80;99.90
12688;DHT22;6408;59.388;17.798;2023-03-14T08:19:01;4.90;99.90
12688;DHT22;6408;59.388;17.798;2023-03-14T08:21:29;4.90;99.90
12688;DHT22;6408;59.388;17.798;2023-03-14T08:23:57;5.10;99.90
12688;DHT22;6408;59.388;17.798;2023-03-14T08:26:28;5.40;99.90
12688;DHT22;6408;59.388;17.798;2023-03-14T08:29:00;5.70;99.90
12688;DHT22;6408;59.388;17.798;2023-03-14T08:31:34;6.30;99.90
12688;DHT22;6408;59.388;17.798;2023-03-14T08:34:12;7.40;99.90
12688;DHT22;6408;59.388;17.798;2023-03-14T08:36:42;8.10;99.90
12688;DHT22;6408;59.388;17.798;2023-03-14T08:42:32;14.40;99.90
12688;DHT22;6408;59.388;17.798;2023-03-14T08:45:16;16.40;99.90
12688;DHT22;6408;59.388;17.798;2023-03-14T08:47:44;15.50;99.90
12688;DHT22;6408;59.388;17.798;2023-03-14T08:50:12;13.80;99.90
12688;DHT22;6408;59.388;17.798;2023-03-14T08:52:45;13.50;99.90
12688;DHT22;6408;59.388;17.798;2023-03-14T08:55:23;14.20;99.90
12688;DHT22;6408;59.388;17.798;2023-03-14T08:57:58;13.80;99.90
12688;DHT22;6408;59.388;17.798;2023-03-14T09:00:27;13.50;99.90
12688;DHT22;6408;59.388;17.798;2023-03-14T09:02:55;11.80;99.90
12688;DHT22;6408;59.388;17.798;2023-03-14T09:05:49;10.20;99.90
12688;DHT22;6408;59.388;17.798;2023-03-14T09:08:35;9.00;99.90
12688;DHT22;6408;59.388;17.798;2023-03-14T09:11:26;8.30;99.90
12688;DHT22;6408;59.388;17.798;2023-03-14T09:14:18;8.60;99.90
12688;DHT22;6408;59.388;17.798;2023-03-14T09:17:07;8.80;99.90
12688;DHT22;6408;59.388;17.798;2023-03-14T09:19:42;10.30;99.90
12688;DHT22;6408;59.388;17.798;2023-03-14T09:22:11;10.60;99.90
12688;DHT22;6408;59.388;17.798;2023-03-14T09:28:05;8.40;99.90
12688;DHT22;6408;59.388;17.798;2023-03-14T09:30:53;7.80;99.90
12688;DHT22;6408;59.388;17.798;2023-03-14T09:33:21;7.50;99.90
12688;DHT22;6408;59.388;17.798;2023-03-14T09:35:51;7.30;99.90
12688;DHT22;6408;59.388;17.798;2023-03-14T09:38:40;7.20;99.90
12688;DHT22;6408;59.388;17.798;2023-03-14T09:41:20;7.10;99.90
12688;DHT22;6408;59.388;17.798;2023-03-14T09:44:04;7.50;99.90
12688;DHT22;6408;59.388;17.798;2023-03-14T09:46:52;8.40;99.90
12688;DHT22;6408;59.388;17.798;2023-03-14T09:49:30;8.80;99.90
12688;DHT22;6408;59.388;17.798;2023-03-14T09:52:13;8.90;99.90
12688;DHT22;6408;59.388;17.798;2023-03-14T09:54:49;8.70;99.90
12688;DHT22;6408;59.388;17.798;2023-03-14T09:57:33;8.40;99.90
12688;DHT22;6408;59.388;17.798;2023-03-14T10:00:16;8.60;99.90
12688;DHT22;6408;59.388;17.798;2023-03-14T10:02:54;8.30;99.90
12688;DHT22;6408;59.388;17.798;2023-03-14T10:05:28;8.30;99.90
12688;DHT22;6408;59.388;17.798;2023-03-14T10:07:59;7.80;99.90
12688;DHT22;6408;59.388;17.798;2023-03-14T10:10:32;7.40;99.90
12688;DHT22;6408;59.388;17.798;2023-03-14T10:13:17;7.00;99.90
12688;DHT22;6408;59.388;17.798;2023-03-14T10:16:04;7.00;99.90
12688;DHT22;6408;59.388;17.798;2023-03-14T10:18:42;6.70;99.90
12688;DHT22;6408;59.388;17.798;2023-03-14T10:21:26;6.90;99.90
12688;DHT22;6408;59.388;17.798;2023-03-14T10:24:25;7.10;99.90
12688;DHT22;6408;59.388;17.798;2023-03-14T10:27:02;6.90;99.90
12688;DHT22;6408;59.388;17.798;2023-03-14T10:29:52;6.80;99.90
12688;DHT22;6408;59.388;17.798;2023-03-14T10:32:30;6.80;99.90
12688;DHT22;6408;59.388;17.798;2023-03-14T10:35:22;6.80;99.90
12688;DHT22;6408;59.388;17.798;2023-03-14T10:37:55;7.00;99.90
12688;DHT22;6408;59.388;17.798;2023-03-14T10:40:29;7.10;99.90
12688;DHT22;6408;59.388;17.798;2023-03-14T10:43:01;7.20;99.90
12688;DHT22;6408;59.388;17.798;2023-03-14T10:45:34;7.00;99.90
12688;DHT22;6408;59.388;17.798;2023-03-14T10:48:20;6.90;99.90
12688;DHT22;6408;59.388;17.798;2023-03-14T10:51:24;7.00;99.90
12688;DHT22;6408;59.388;17.798;2023-03-14T10:54:19;7.00;99.90
12688;DHT22;6408;59.388;17.798;2023-03-14T10:57:01;6.90;99.90
12688;DHT22;6408;59.388;17.798;2023-03-14T10:59:36;6.90;99.90
12688;DHT22;6408;59.388;17.798;2023-03-14T11:02:34;6.80;99.90
12688;DHT22;6408;59.388;17.798;2023-03-14T11:05:29;6.80;99.90
12688;DHT22;6408;59.388;17.798;2023-03-14T11:08:11;6.80;99.90
12688;DHT22;6408;59.388;17.798;2023-03-14T11:10:47;6.70;99.90
12688;DHT22;6408;59.388;17.798;2023-03-14T11:13:37;6.60;99.90
12688;DHT22;6408;59.388;17.798;2023-03-14T11:16:16;6.70;99.90
12688;DHT22;6408;59.388;17.798;2023-03-14T11:19:00;6.70;99.90
12688;DHT22;6408;59.388;17.798;2023-03-14T11:21:40;6.60;99.90
12688;DHT22;6408;59.388;17.798;2023-03-14T11:24:31;6.50;99.90
12688;DHT22;6408;59.388;17.798;2023-03-14T11:27:11;6.60;99.90
12688;DHT22;6408;59.388;17.798;2023-03-14T11:29:57;6.60;99.90
12688;DHT22;6408;59.388;17.798;2023-03-14T11:32:42;6.60;99.90
12688;DHT22;6408;59.388;17.798;2023-03-14T11:35:34;6.60;99.90
12688;DHT22;6408;59.388;17.798;2023-03-14T11:38:18;6.60;99.90
12688;DHT22;6408;59.388;17.798;2023-03-14T11:40:54;6.60;99.90
12688;DHT22;6408;59.388;17.798;2023-03-14T11:43:30;6.60;99.90
12688;DHT22;6408;59.388;17.798;2023-03-14T11:46:29;6.50;99.90
12688;DHT22;6408;59.388;17.798;2023-03-14T11:49:05;6.50;99.90
12688;DHT22;6408;59.388;17.798;2023-03-14T11:51:39;6.50;99.90
12688;DHT22;6408;59.388;17.798;2023-03-14T11:54:19;6.50;99.90
12688;DHT22;6408;59.388;17.798;2023-03-14T11:56:58;6.30;99.90
12688;DHT22;6408;59.388;17.798;2023-03-14T11:59:47;6.20;99.90
12688;DHT22;6408;59.388;17.798;2023-03-14T12:02:25;6.10;99.90
12688;DHT22;6408;59.388;17.798;2023-03-14T12:08:24;6.00;99.90
12688;DHT22;6408;59.388;17.798;2023-03-14T12:11:20;5.90;99.90
12688;DHT22;6408;59.388;17.798;2023-03-14T12:14:15;5.80;99.90
12688;DHT22;6408;59.388;17.798;2023-03-14T12:16:56;5.80;99.90
12688;DHT22;6408;59.388;17.798;2023-03-14T12:19:40;5.80;99.90
12688;DHT22;6408;59.388;17.798;2023-03-14T12:22:26;5.70;99.90
12688;DHT22;6408;59.388;17.798;2023-03-14T12:25:02;5.70;99.90
12688;DHT22;6408;59.388;17.798;2023-03-14T12:30:42;5.60;99.90
12688;DHT22;6408;59.388;17.798;2023-03-14T12:33:30;5.60;99.90
12688;DHT22;6408;59.388;17.798;2023-03-14T12:36:11;5.60;99.90
12688;DHT22;6408;59.388;17.798;2023-03-14T12:39:13;5.60;99.90
12688;DHT22;6408;59.388;17.798;2023-03-14T12:41:52;5.50;99.90
12688;DHT22;6408;59.388;17.798;2023-03-14T12:44:41;5.50;99.90
12688;DHT22;6408;59.388;17.798;2023-03-14T12:50:32;5.50;99.90
12688;DHT22;6408;59.388;17.798;2023-03-14T12:56:15;5.50;99.90
12688;DHT22;6408;59.388;17.798;2023-03-14T12:59:28;5.50;99.90
12688;DHT22;6408;59.388;17.798;2023-03-14T13:02:25;5.60;99.90
12688;DHT22;6408;59.388;17.798;2023-03-14T13:05:08;5.60;99.90
12688;DHT22;6408;59.388;17.798;2023-03-14T13:11:15;5.50;99.90
12688;DHT22;6408;59.388;17.798;2023-03-14T13:13:47;5.70;99.90
12688;DHT22;6408;59.388;17.798;2023-03-14T13:16:20;5.50;99.90
12688;DHT22;6408;59.388;17.798;2023-03-14T13:19:02;5.50;99.90
12688;DHT22;6408;59.388;17.798;2023-03-14T13:21:35;5.60;99.90
12688;DHT22;6408;59.388;17.798;2023-03-14T13:24:23;5.50;99.90
12688;DHT22;6408;59.388;17.798;2023-03-14T13:27:02;5.40;99.90
12688;DHT22;6408;59.388;17.798;2023-03-14T13:29:35;5.40;99.90
12688;DHT22;6408;59.388;17.798;2023-03-14T13:32:17;5.40;99.90
12688;DHT22;6408;59.388;17.798;2023-03-14T13:34:51;5.40;99.90
12688;DHT22;6408;59.388;17.798;2023-03-14T13:37:27;5.30;99.90
12688;DHT22;6408;59.388;17.798;2023-03-14T13:39:59;5.20;99.90
12688;DHT22;6408;59.388;17.798;2023-03-14T13:42:29;5.20;99.90
12688;DHT22;6408;59.388;17.798;2023-03-14T13:44:59;5.10;99.90
12688;DHT22;6408;59.388;17.798;2023-03-14T13:47:36;5.00;99.90
12688;DHT22;6408;59.388;17.798;2023-03-14T13:50:22;5.00;99.90
12688;DHT22;6408;59.388;17.798;2023-03-14T13:52:56;4.90;99.90
12688;DHT22;6408;59.388;17.798;2023-03-14T13:55:46;4.80;99.90
12688;DHT22;6408;59.388;17.798;2023-03-14T13:58:29;4.80;99.90
12688;DHT22;6408;59.388;17.798;2023-03-14T14:01:05;4.70;99.90
12688;DHT22;6408;59.388;17.798;2023-03-14T14:03:41;4.60;99.90
12688;DHT22;6408;59.388;17.798;2023-03-14T14:06:34;4.60;99.90
12688;DHT22;6408;59.388;17.798;2023-03-14T14:09:11;4.50;99.90
12688;DHT22;6408;59.388;17.798;2023-03-14T14:11:47;4.40;99.90
12688;DHT22;6408;59.388;17.798;2023-03-14T14:14:21;4.40;99.90
12688;DHT22;6408;59.388;17.798;2023-03-14T14:16:59;4.30;99.90
12688;DHT22;6408;59.388;17.798;2023-03-14T14:19:41;4.30;99.90
12688;DHT22;6408;59.388;17.798;2023-03-14T14:22:09;4.30;99.90
12688;DHT22;6408;59.388;17.798;2023-03-14T14:24:38;4.30;99.90
12688;DHT22;6408;59.388;17.798;2023-03-14T14:27:12;4.20;99.90
12688;DHT22;6408;59.388;17.798;2023-03-14T14:30:00;4.20;99.90
12688;DHT22;6408;59.388;17.798;2023-03-14T14:32:37;4.30;99.90
12688;DHT22;6408;59.388;17.798;2023-03-14T14:35:07;4.20;99.90
12688;DHT22;6408;59.388;17.798;2023-03-14T14:37:45;4.20;99.90
12688;DHT22;6408;59.388;17.798;2023-03-14T14:40:21;4.20;99.90
12688;DHT22;6408;59.388;17.798;2023-03-14T14:43:01;4.20;99.90
12688;DHT22;6408;59.388;17.798;2023-03-14T14:45:36;4.20;99.90
12688;DHT22;6408;59.388;17.798;2023-03-14T14:48:15;4.10;99.90
12688;DHT22;6408;59.388;17.798;2023-03-14T14:51:08;4.10;99.90
12688;DHT22;6408;59.388;17.798;2023-03-14T14:53:41;4.10;99.90
12688;DHT22;6408;59.388;17.798;2023-03-14T14:56:17;4.10;99.90
12688;DHT22;6408;59.388;17.798;2023-03-14T14:58:49;4.10;99.90
12688;DHT22;6408;59.388;17.798;2023-03-14T15:01:24;4.10;99.90
12688;DHT22;6408;59.388;17.798;2023-03-14T15:03:57;4.00;99.90
12688;DHT22;6408;59.388;17.798;2023-03-14T15:06:31;3.90;99.90
12688;DHT22;6408;59.388;17.798;2023-03-14T15:09:00;3.90;99.90
12688;DHT22;6408;59.388;17.798;2023-03-14T15:11:28;3.80;99.90
12688;DHT22;6408;59.388;17.798;2023-03-14T15:13:56;3.80;99.90
12688;DHT22;6408;59.388;17.798;2023-03-14T15:16:28;3.80;99.90
12688;DHT22;6408;59.388;17.798;2023-03-14T15:19:00;3.70;99.90
12688;DHT22;6408;59.388;17.798;2023-03-14T15:21:32;3.70;99.90
12688;DHT22;6408;59.388;17.798;2023-03-14T15:24:00;3.60;99.90
12688;DHT22;6408;59.388;17.798;2023-03-14T15:26:28;3.60;99.90
12688;DHT22;6408;59.388;17.798;2023-03-14T15:28:56;3.60;99.90
12688;DHT22;6408;59.388;17.798;2023-03-14T15:31:26;3.60;99.90
12688;DHT22;6408;59.388;17.798;2023-03-14T15:33:53;3.60;99.90
12688;DHT22;6408;59.388;17.798;2023-03-14T15:36:23;3.60;99.90
12688;DHT22;6408;59.388;17.798;2023-03-14T15:38:52;3.50;99.90
12688;DHT22;6408;59.388;17.798;2023-03-14T15:41:22;3.50;99.90
12688;DHT22;6408;59.388;17.798;2023-03-14T15:43:50;3.50;99.90
12688;DHT22;6408;59.388;17.798;2023-03-14T15:46:18;3.50;99.90
12688;DHT22;6408;59.388;17.798;2023-03-14T15:48:50;3.40;99.90
12688;DHT22;6408;59.388;17.798;2023-03-14T15:51:18;3.40;99.90
12688;DHT22;6408;59.388;17.798;2023-03-14T15:53:46;3.30;99.90
12688;DHT22;6408;59.388;17.798;2023-03-14T15:56:15;3.30;99.90
12688;DHT22;6408;59.388;17.798;2023-03-14T15:58:44;3.10;99.90
12688;DHT22;6408;59.388;17.798;2023-03-14T16:01:15;3.00;99.90
12688;DHT22;6408;59.388;17.798;2023-03-14T16:03:43;3.00;99.90
12688;DHT22;6408;59.388;17.798;2023-03-14T16:06:13;3.00;99.90
12688;DHT22;6408;59.388;17.798;2023-03-14T16:08:41;3.00;99.90
12688;DHT22;6408;59.388;17.798;2023-03-14T16:11:10;2.90;99.90
12688;DHT22;6408;59.388;17.798;2023-03-14T16:13:38;2.90;99.90
12688;DHT22;6408;59.388;17.798;2023-03-14T16:16:13;2.90;99.90
12688;DHT22;6408;59.388;17.798;2023-03-14T16:18:41;2.90;99.90
12688;DHT22;6408;59.388;17.798;2023-03-14T16:27:13;2.70;99.90
12688;DHT22;6408;59.388;17.798;2023-03-14T16:29:42;2.60;99.90
12688;DHT22;6408;59.388;17.798;2023-03-14T16:32:11;2.60;99.90
12688;DHT22;6408;59.388;17.798;2023-03-14T16:34:43;2.60;99.90
12688;DHT22;6408;59.388;17.798;2023-03-14T16:37:13;2.60;99.90
12688;DHT22;6408;59.388;17.798;2023-03-14T16:39:57;2.50;99.90
12688;DHT22;6408;59.388;17.798;2023-03-14T16:42:51;2.50;99.90
12688;DHT22;6408;59.388;17.798;2023-03-14T16:45:48;2.40;99.90
12688;DHT22;6408;59.388;17.798;2023-03-14T16:48:21;2.40;99.90
12688;DHT22;6408;59.388;17.798;2023-03-14T16:51:05;2.40;99.90
12688;DHT22;6408;59.388;17.798;2023-03-14T16:53:44;2.40;99.90
12688;DHT22;6408;59.388;17.798;2023-03-14T16:56:25;2.30;99.90